Time;durP1;ratioP1;P1;durP2;ratioP2;P2;SDS_P1;SDS_P2;PMS_P1;PMS_P2;Temp;Humidity;BMP_temperature;BMP_pressure;BME280_temperature;BME280_humidity;BME280_pressure;Samples;Min_cycle;Max_cycle;Signal;HPM_P1;HPM_P2
2022/07/18 00:01:54;;;;;;;7.05;4.72;;;30.50;1.00;;;;;;5154362;27;20476;-51
2022/07/18 00:04:20;;;;;;;6.55;5.53;;;30.60;1.00;;;;;;5152924;27;20033;-52
2022/07/18 00:06:46;;;;;;;5.88;5.40;;;30.80;1.00;;;;;;5137188;27;20410;-53
2022/07/18 00:09:11;;;;;;;6.05;5.47;;;30.70;1.00;;;;;;5154842;27;20031;-51
2022/07/18 00:11:37;;;;;;;8.60;5.60;;;30.80;1.00;;;;;;5155572;27;20057;-52
2022/07/18 00:14:03;;;;;;;6.50;5.78;;;30.70;1.00;;;;;;5154353;27;20025;-48
2022/07/18 00:16:29;;;;;;;5.90;5.25;;;30.70;1.00;;;;;;5156076;27;20037;-48
2022/07/18 00:18:55;;;;;;;6.28;5.38;;;30.70;1.00;;;;;;5153078;27;20026;-50
2022/07/18 00:21:20;;;;;;;7.18;5.20;;;30.80;1.00;;;;;;5142720;27;20114;-53
2022/07/18 00:23:46;;;;;;;6.07;5.22;;;30.70;1.00;;;;;;5144683;27;20026;-52
2022/07/18 00:26:12;;;;;;;7.80;5.65;;;30.70;1.00;;;;;;5151877;27;20070;-49
2022/07/18 00:28:37;;;;;;;6.40;5.50;;;30.70;1.00;;;;;;5146851;27;20026;-51
2022/07/18 00:31:03;;;;;;;7.63;6.07;;;30.60;1.00;;;;;;5152925;27;20038;-50
2022/07/18 00:33:29;;;;;;;6.85;5.80;;;30.80;1.00;;;;;;5138333;27;20055;-52
2022/07/18 00:35:54;;;;;;;7.10;5.65;;;30.60;1.00;;;;;;5144349;27;20054;-48
2022/07/18 00:38:20;;;;;;;5.53;5.03;;;30.70;1.00;;;;;;5150288;27;20026;-48
2022/07/18 00:40:46;;;;;;;5.57;5.03;;;30.80;1.00;;;;;;5135538;27;20031;-52
2022/07/18 00:43:14;;;;;;;8.20;5.57;;;30.60;1.00;;;;;;5153382;27;20058;-49
2022/07/18 00:45:45;;;;;;;5.68;4.38;;;30.50;1.00;;;;;;5153401;27;20031;-50
2022/07/18 00:48:10;;;;;;;6.45;5.47;;;30.30;1.00;;;;;;5154260;27;20121;-53
2022/07/18 00:50:36;;;;;;;5.63;5.13;;;30.50;1.00;;;;;;5154309;27;20047;-50
2022/07/18 00:53:02;;;;;;;7.47;5.28;;;30.60;1.00;;;;;;5153839;27;20213;-53
2022/07/18 00:55:28;;;;;;;6.53;5.40;;;30.50;1.00;;;;;;5152574;27;20015;-52
2022/07/18 00:57:56;;;;;;;7.35;5.00;;;30.40;1.00;;;;;;5152436;27;20118;-50
2022/07/18 01:03:06;;;;;;;9.00;5.45;;;30.40;1.00;;;;;;5153095;27;20073;-50
2022/07/18 01:05:31;;;;;;;6.18;4.70;;;30.30;1.00;;;;;;5154177;27;20084;-48
2022/07/18 01:08:03;;;;;;;5.68;5.05;;;30.40;1.00;;;;;;5153808;27;20023;-53
2022/07/18 01:10:29;;;;;;;7.35;5.72;;;30.60;1.00;;;;;;5141144;27;20018;-55
2022/07/18 01:12:55;;;;;;;8.35;5.57;;;30.40;1.00;;;;;;5154204;27;20045;-50
2022/07/18 01:15:20;;;;;;;6.20;5.60;;;30.30;1.00;;;;;;5154360;27;20031;-53
2022/07/18 01:17:46;;;;;;;8.70;5.80;;;30.30;1.00;;;;;;5153257;27;20033;-52
2022/07/18 01:20:12;;;;;;;6.93;5.82;;;30.30;1.00;;;;;;5142744;27;20047;-54
2022/07/18 01:22:41;;;;;;;8.95;5.00;;;30.00;1.00;;;;;;5134282;27;20035;-54
2022/07/18 01:25:07;;;;;;;6.13;5.53;;;29.90;1.00;;;;;;5152938;27;20029;-53
2022/07/18 01:27:32;;;;;;;6.05;5.47;;;29.80;1.00;;;;;;5151897;27;20415;-50
2022/07/18 01:29:58;;;;;;;7.57;5.70;;;29.80;1.00;;;;;;5152532;27;20023;-53
2022/07/18 01:32:24;;;;;;;6.18;5.38;;;29.50;1.00;;;;;;5154185;27;20018;-51
2022/07/18 01:34:50;;;;;;;6.57;5.70;;;29.60;1.00;;;;;;5152994;27;20114;-50
2022/07/18 01:37:15;;;;;;;5.93;5.43;;;29.60;1.00;;;;;;5152487;27;20514;-52
2022/07/18 01:39:42;;;;;;;8.50;5.95;;;29.70;1.00;;;;;;5136341;27;20026;-49
2022/07/18 01:42:09;;;;;;;6.88;5.68;;;29.50;1.00;;;;;;5145107;27;20341;-52
2022/07/18 01:44:36;;;;;;;6.05;4.65;;;29.60;1.00;;;;;;5143886;27;20490;-51
2022/07/18 01:47:04;;;;;;;5.97;5.25;;;29.70;1.00;;;;;;5150464;27;20306;-52
2022/07/18 01:49:30;;;;;;;5.22;4.50;;;29.70;1.00;;;;;;5147617;27;20026;-51
2022/07/18 01:51:56;;;;;;;6.90;4.82;;;30.00;1.00;;;;;;5153744;27;20038;-48
2022/07/18 01:54:24;;;;;;;7.07;5.55;;;29.70;1.00;;;;;;5151315;27;20064;-49
2022/07/18 01:56:50;;;;;;;5.78;4.40;;;29.80;1.00;;;;;;5138955;27;20422;-49
2022/07/18 01:59:16;;;;;;;5.43;4.88;;;29.60;1.00;;;;;;5152349;27;20125;-51
2022/07/18 02:01:42;;;;;;;7.13;5.22;;;29.70;1.00;;;;;;5152802;27;20119;-48
2022/07/18 02:04:08;;;;;;;5.97;4.95;;;29.70;1.00;;;;;;5144144;27;20023;-48
2022/07/18 02:06:34;;;;;;;6.10;4.60;;;29.70;1.00;;;;;;5144724;27;20106;-52
2022/07/18 02:08:59;;;;;;;6.05;4.78;;;29.70;1.00;;;;;;5147916;27;20050;-48
2022/07/18 02:11:25;;;;;;;10.90;5.00;;;29.60;1.00;;;;;;5141312;27;20061;-48
2022/07/18 02:13:52;;;;;;;7.15;5.13;;;29.80;1.00;;;;;;5147019;27;20019;-49
2022/07/18 02:16:17;;;;;;;5.90;4.47;;;29.70;1.00;;;;;;5140754;27;20026;-48
2022/07/18 02:18:43;;;;;;;7.03;4.45;;;29.90;1.00;;;;;;5152889;27;20027;-51
2022/07/18 02:21:09;;;;;;;5.50;4.80;;;29.60;1.00;;;;;;5132658;27;20076;-48
2022/07/18 02:23:35;;;;;;;4.97;4.57;;;29.50;1.00;;;;;;5139800;27;20027;-52
2022/07/18 02:26:01;;;;;;;5.68;4.78;;;29.30;1.00;;;;;;5132683;27;20080;-49
2022/07/18 02:28:27;;;;;;;9.02;5.53;;;29.40;1.00;;;;;;5151565;27;20018;-51
2022/07/18 02:30:52;;;;;;;6.00;4.65;;;29.40;1.00;;;;;;5153159;27;20049;-48
2022/07/18 02:33:18;;;;;;;4.75;4.35;;;29.50;1.00;;;;;;5151845;27;20027;-53
2022/07/18 02:35:44;;;;;;;5.65;4.45;;;29.40;1.00;;;;;;5137513;27;20059;-50
2022/07/18 02:38:10;;;;;;;5.38;4.88;;;29.40;1.00;;;;;;5140627;27;20487;-48
2022/07/18 02:40:36;;;;;;;6.32;4.28;;;29.40;1.00;;;;;;5140111;27;20045;-52
2022/07/18 02:43:02;;;;;;;6.28;4.70;;;29.40;1.00;;;;;;5135224;27;20043;-50
2022/07/18 02:45:27;;;;;;;4.18;3.78;;;29.50;1.00;;;;;;5137609;27;20106;-50
2022/07/18 02:47:53;;;;;;;5.63;4.18;;;29.50;1.00;;;;;;5142413;27;20071;-51
2022/07/18 02:50:19;;;;;;;4.88;4.47;;;29.50;1.00;;;;;;5146817;27;20499;-52
2022/07/18 02:52:45;;;;;;;5.90;4.45;;;29.60;1.00;;;;;;5142973;27;20038;-52
2022/07/18 02:55:12;;;;;;;6.20;5.05;;;29.60;1.00;;;;;;5152027;27;20024;-52
2022/07/18 02:57:39;;;;;;;5.43;4.65;;;29.60;1.00;;;;;;5153196;27;20027;-52
2022/07/18 03:00:06;;;;;;;5.70;4.50;;;29.50;1.00;;;;;;5146095;27;20490;-49
2022/07/18 03:02:32;;;;;;;5.25;4.78;;;29.50;1.00;;;;;;5148291;27;20030;-52
2022/07/18 03:04:57;;;;;;;8.02;4.63;;;29.50;1.00;;;;;;5155830;27;20083;-48
2022/07/18 03:07:23;;;;;;;5.38;4.78;;;29.40;1.00;;;;;;5156523;27;20110;-49
2022/07/18 03:09:49;;;;;;;5.13;4.60;;;29.30;1.00;;;;;;5156152;27;20106;-49
2022/07/18 03:12:14;;;;;;;9.05;4.78;;;29.20;1.00;;;;;;5156921;27;20492;-49
2022/07/18 03:14:40;;;;;;;6.38;4.25;;;29.30;1.00;;;;;;5141026;27;20034;-48
2022/07/18 03:17:05;;;;;;;4.25;3.95;;;29.00;1.00;;;;;;5153907;27;20026;-47
2022/07/18 03:19:31;;;;;;;4.43;4.05;;;29.10;1.00;;;;;;5142058;27;20029;-49
2022/07/18 03:21:57;;;;;;;9.98;5.47;;;29.20;1.00;;;;;;5150958;27;20924;-49
2022/07/18 03:24:22;;;;;;;5.38;4.60;;;29.20;1.00;;;;;;5151319;27;20058;-50
2022/07/18 03:26:48;;;;;;;6.28;4.25;;;29.20;1.00;;;;;;5142164;27;20106;-50
2022/07/18 03:29:14;;;;;;;5.03;4.03;;;29.20;1.00;;;;;;5150772;27;20366;-50
2022/07/18 03:31:39;;;;;;;5.85;5.13;;;29.30;1.00;;;;;;5148614;27;20079;-51
2022/07/18 03:34:05;;;;;;;4.88;4.47;;;29.20;1.00;;;;;;5155535;27;20049;-49
2022/07/18 03:36:31;;;;;;;5.30;4.80;;;29.30;1.00;;;;;;5142024;27;20412;-51
2022/07/18 03:38:56;;;;;;;5.97;4.63;;;29.30;1.00;;;;;;5149363;27;20053;-48
2022/07/18 03:41:22;;;;;;;5.40;4.82;;;29.30;1.00;;;;;;5147373;27;20133;-49
2022/07/18 03:43:47;;;;;;;4.90;4.10;;;29.30;1.00;;;;;;5151595;27;20563;-49
2022/07/18 03:46:13;;;;;;;8.27;4.45;;;29.40;1.00;;;;;;5145521;27;20029;-51
2022/07/18 03:48:39;;;;;;;7.15;4.20;;;29.40;1.00;;;;;;5152649;27;20030;-49
2022/07/18 03:51:04;;;;;;;6.97;4.28;;;29.30;1.00;;;;;;5151547;27;20392;-48
2022/07/18 03:53:31;;;;;;;5.10;4.55;;;29.40;1.00;;;;;;5142831;27;20027;-48
2022/07/18 03:55:57;;;;;;;6.57;4.75;;;29.50;1.00;;;;;;5136752;27;20114;-54
2022/07/18 03:58:22;;;;;;;5.45;4.90;;;29.60;1.00;;;;;;5155065;27;20126;-52
2022/07/18 04:00:48;;;;;;;7.07;4.70;;;29.60;1.00;;;;;;5150578;27;20048;-49
2022/07/18 04:03:14;;;;;;;7.35;4.47;;;29.70;1.00;;;;;;5154975;27;20054;-51
2022/07/18 04:05:40;;;;;;;4.63;4.03;;;29.60;1.00;;;;;;5141780;27;20027;-52
2022/07/18 04:08:05;;;;;;;4.65;4.35;;;29.40;1.00;;;;;;5153140;27;20023;-52
2022/07/18 04:10:31;;;;;;;5.10;4.28;;;29.40;1.00;;;;;;5145426;27;20054;-51
2022/07/18 04:12:57;;;;;;;6.30;4.28;;;29.30;1.00;;;;;;5150361;27;20034;-47
2022/07/18 04:15:25;;;;;;;5.93;4.50;;;29.50;1.00;;;;;;5153745;27;20042;-51
2022/07/18 04:17:51;;;;;;;4.53;4.10;;;29.50;1.00;;;;;;5155738;27;20055;-48
2022/07/18 04:20:18;;;;;;;5.75;4.18;;;29.50;1.00;;;;;;5148236;27;20023;-51
2022/07/18 04:22:56;;;;;;;6.68;4.00;;;29.60;1.00;;;;;;5148051;27;20070;-49
2022/07/18 04:25:24;;;;;;;4.53;4.00;;;29.50;1.00;;;;;;5147324;27;20023;-52
2022/07/18 04:27:50;;;;;;;7.43;4.22;;;29.80;1.00;;;;;;5147174;27;20025;-52
2022/07/18 04:30:18;;;;;;;5.25;3.95;;;29.70;1.00;;;;;;5154113;27;20059;-48
2022/07/18 04:32:44;;;;;;;5.55;4.22;;;29.70;1.00;;;;;;5155196;27;20476;-52
2022/07/18 04:35:11;;;;;;;4.43;4.10;;;29.60;1.00;;;;;;5153024;27;20023;-49
2022/07/18 04:37:37;;;;;;;4.88;4.22;;;29.40;1.00;;;;;;5155152;27;20051;-54
2022/07/18 04:40:03;;;;;;;6.50;4.35;;;29.60;1.00;;;;;;5154083;27;20030;-53
2022/07/18 04:42:30;;;;;;;5.13;4.05;;;29.60;1.00;;;;;;5140059;27;20039;-52
2022/07/18 04:44:57;;;;;;;5.07;4.10;;;29.40;1.00;;;;;;5146730;27;20038;-54
2022/07/18 04:47:22;;;;;;;4.82;4.15;;;29.60;1.00;;;;;;5146917;27;20369;-52
2022/07/18 04:49:48;;;;;;;6.72;4.32;;;29.50;1.00;;;;;;5153598;27;20055;-50
2022/07/18 04:52:13;;;;;;;7.22;4.35;;;29.30;1.00;;;;;;5153167;27;20071;-55
2022/07/18 04:54:39;;;;;;;5.57;4.22;;;29.30;1.00;;;;;;5146209;27;20035;-51
2022/07/18 04:57:04;;;;;;;4.82;3.97;;;29.40;1.00;;;;;;5142210;27;20368;-49
2022/07/18 04:59:30;;;;;;;6.78;4.43;;;29.50;1.00;;;;;;5146854;27;20035;-50
2022/07/18 05:01:56;;;;;;;5.28;3.97;;;29.40;1.00;;;;;;5143241;27;20030;-48
2022/07/18 05:04:21;;;;;;;4.95;4.25;;;29.40;1.00;;;;;;5153297;27;20050;-52
2022/07/18 05:06:47;;;;;;;5.72;4.30;;;29.50;1.00;;;;;;5141000;27;20552;-48
2022/07/18 05:09:12;;;;;;;6.00;4.45;;;29.40;1.00;;;;;;5154099;27;20026;-54
2022/07/18 05:11:39;;;;;;;4.28;3.85;;;29.30;1.00;;;;;;5154172;27;20019;-50
2022/07/18 05:14:05;;;;;;;5.63;4.32;;;29.50;1.00;;;;;;5153626;27;20459;-51
2022/07/18 05:16:30;;;;;;;6.05;4.40;;;29.30;1.00;;;;;;5138412;27;20031;-49
2022/07/18 05:18:56;;;;;;;6.25;4.28;;;29.20;1.00;;;;;;5152094;27;22389;-51
2022/07/18 05:21:22;;;;;;;4.85;4.20;;;29.10;1.00;;;;;;5144582;27;20129;-48
2022/07/18 05:23:47;;;;;;;7.10;4.07;;;29.20;1.00;;;;;;5139048;27;20022;-52
2022/07/18 05:26:13;;;;;;;7.38;4.50;;;29.20;1.00;;;;;;5141036;27;20072;-51
2022/07/18 05:28:39;;;;;;;6.55;4.03;;;29.40;1.00;;;;;;5152934;27;20050;-50
2022/07/18 05:31:04;;;;;;;4.65;4.20;;;29.30;1.00;;;;;;5153152;27;20023;-50
2022/07/18 05:33:30;;;;;;;5.13;4.65;;;29.30;1.00;;;;;;5153384;27;20090;-53
2022/07/18 05:35:55;;;;;;;6.47;4.00;;;29.30;1.00;;;;;;5143853;27;20035;-51
2022/07/18 05:38:21;;;;;;;4.72;4.30;;;29.60;1.00;;;;;;5148541;27;20033;-52
2022/07/18 05:40:47;;;;;;;5.03;4.07;;;29.50;1.00;;;;;;5153025;27;20022;-54
2022/07/18 05:43:12;;;;;;;5.70;4.78;;;29.30;1.00;;;;;;5153086;27;20079;-53
2022/07/18 05:45:38;;;;;;;5.63;4.05;;;29.10;1.00;;;;;;5152462;27;20015;-52
2022/07/18 05:48:04;;;;;;;5.00;4.35;;;29.30;1.00;;;;;;5153253;27;20054;-52
2022/07/18 05:50:30;;;;;;;5.85;4.40;;;29.50;1.00;;;;;;5146925;27;20018;-52
2022/07/18 05:52:56;;;;;;;5.13;4.00;;;29.50;1.00;;;;;;5141001;27;20429;-51
2022/07/18 05:55:22;;;;;;;5.35;4.78;;;29.60;1.00;;;;;;5142125;27;20023;-53
2022/07/18 05:57:49;;;;;;;5.82;4.68;;;29.40;1.00;;;;;;5144155;27;20503;-52
2022/07/18 06:00:16;;;;;;;5.65;4.82;;;29.50;1.00;;;;;;5143924;27;20063;-51
2022/07/18 06:02:42;;;;;;;4.63;4.22;;;29.50;1.00;;;;;;5143918;27;20022;-52
2022/07/18 06:05:08;;;;;;;6.90;4.70;;;29.70;1.00;;;;;;5144793;27;20034;-52
2022/07/18 06:07:34;;;;;;;5.90;5.40;;;29.70;1.00;;;;;;5148960;27;20015;-49
2022/07/18 06:10:00;;;;;;;7.28;5.50;;;29.70;1.00;;;;;;5151672;27;20030;-49
2022/07/18 06:12:30;;;;;;;5.35;4.82;;;29.70;1.00;;;;;;5152166;27;20458;-52
2022/07/18 06:14:56;;;;;;;9.05;5.68;;;29.70;1.00;;;;;;5147978;27;20023;-55
2022/07/18 06:17:22;;;;;;;4.68;4.28;;;29.80;1.00;;;;;;5148000;27;20023;-56
2022/07/18 06:19:48;;;;;;;5.80;4.80;;;29.60;1.00;;;;;;5141708;27;20460;-49
2022/07/18 06:22:14;;;;;;;7.40;4.55;;;29.50;1.00;;;;;;5150656;27;20121;-53
2022/07/18 06:24:39;;;;;;;5.65;5.00;;;29.70;1.00;;;;;;5152569;27;20041;-51
2022/07/18 06:27:05;;;;;;;5.45;4.90;;;29.60;1.00;;;;;;5153367;27;20053;-48
2022/07/18 06:29:30;;;;;;;5.28;4.43;;;29.60;1.00;;;;;;5151149;27;20027;-51
2022/07/18 06:31:56;;;;;;;5.68;4.60;;;29.60;1.00;;;;;;5151516;27;20464;-48
2022/07/18 06:34:22;;;;;;;4.80;4.28;;;29.80;1.00;;;;;;5150342;27;20018;-50
2022/07/18 06:36:47;;;;;;;8.35;4.72;;;29.80;1.00;;;;;;5152851;27;20545;-50
2022/07/18 06:39:16;;;;;;;5.05;4.15;;;29.80;1.00;;;;;;5150678;27;20041;-46
2022/07/18 06:41:42;;;;;;;5.30;4.47;;;29.80;1.00;;;;;;5151042;27;20042;-52
2022/07/18 06:44:07;;;;;;;7.68;4.50;;;29.80;1.00;;;;;;5152119;27;20378;-48
2022/07/18 06:46:33;;;;;;;5.82;4.35;;;29.60;1.00;;;;;;5144118;27;20031;-49
2022/07/18 06:48:59;;;;;;;6.85;4.90;;;29.80;1.00;;;;;;5146178;27;20042;-47
2022/07/18 06:51:24;;;;;;;6.05;4.63;;;29.70;1.00;;;;;;5144865;27;20023;-51
2022/07/18 06:53:51;;;;;;;5.88;4.07;;;29.70;1.00;;;;;;5152184;27;20033;-49
2022/07/18 06:56:17;;;;;;;7.30;4.60;;;29.60;1.00;;;;;;5151568;27;20105;-51
2022/07/18 06:58:48;;;;;;;4.18;3.88;;;29.70;1.00;;;;;;5138418;27;20027;-54
2022/07/18 07:01:17;;;;;;;6.40;4.93;;;29.60;1.00;;;;;;5141799;27;20062;-48
2022/07/18 07:03:44;;;;;;;7.07;4.47;;;29.60;1.00;;;;;;5149141;27;20392;-49
2022/07/18 07:06:09;;;;;;;6.15;4.85;;;29.70;1.00;;;;;;5150721;27;20106;-48
2022/07/18 07:08:35;;;;;;;9.23;4.70;;;29.70;1.00;;;;;;5153154;27;20085;-46
2022/07/18 07:11:01;;;;;;;5.43;4.38;;;29.80;1.00;;;;;;5151834;27;20023;-51
2022/07/18 07:13:26;;;;;;;7.05;5.07;;;29.80;1.00;;;;;;5150731;27;20113;-48
2022/07/18 07:15:52;;;;;;;6.38;5.03;;;29.70;1.00;;;;;;5152021;27;20124;-48
2022/07/18 07:18:18;;;;;;;5.30;4.80;;;29.70;1.00;;;;;;5151987;27;20110;-51
2022/07/18 07:20:43;;;;;;;7.53;4.88;;;29.70;1.00;;;;;;5151487;27;20038;-49
2022/07/18 07:23:09;;;;;;;6.38;5.70;;;29.70;1.00;;;;;;5151484;27;20144;-49
2022/07/18 07:25:36;;;;;;;5.97;4.85;;;29.70;1.00;;;;;;5151811;27;20034;-48
2022/07/18 07:28:03;;;;;;;5.68;4.75;;;29.60;1.00;;;;;;5152020;27;20038;-47
2022/07/18 07:30:29;;;;;;;5.55;4.68;;;29.50;1.00;;;;;;5150512;27;20505;-47
2022/07/18 07:32:55;;;;;;;8.00;5.38;;;29.60;1.00;;;;;;5151904;27;20041;-57
2022/07/18 07:35:22;;;;;;;4.80;4.40;;;29.80;1.00;;;;;;5148563;27;20019;-51
2022/07/18 07:37:53;;;;;;;6.40;4.32;;;30.10;1.00;;;;;;5148783;27;20101;-61
2022/07/18 07:40:20;;;;;;;5.93;5.32;;;29.90;1.00;;;;;;5150929;27;20015;-61
2022/07/18 07:42:45;;;;;;;5.75;5.25;;;29.90;1.00;;;;;;5152583;27;20041;-59
2022/07/18 07:45:13;;;;;;;7.15;4.82;;;29.60;1.00;;;;;;5151628;27;20030;-61
2022/07/18 07:47:39;;;;;;;6.07;4.32;;;29.80;1.00;;;;;;5144492;27;20015;-60
2022/07/18 07:50:07;;;;;;;7.35;4.70;;;30.10;1.00;;;;;;5149325;27;20019;-57
2022/07/18 07:52:33;;;;;;;5.13;4.63;;;30.50;1.00;;;;;;5142489;27;20027;-62
2022/07/18 07:54:58;;;;;;;5.50;4.65;;;30.60;1.00;;;;;;5154305;27;20483;-53
2022/07/18 07:57:24;;;;;;;5.80;5.07;;;30.70;1.00;;;;;;5141490;27;20039;-59
2022/07/18 07:59:50;;;;;;;5.50;4.47;;;30.70;1.00;;;;;;5155364;27;20405;-56
2022/07/18 08:02:16;;;;;;;7.30;4.70;;;30.90;1.00;;;;;;5155972;27;20045;-51
2022/07/18 08:04:42;;;;;;;4.80;4.40;;;30.70;1.00;;;;;;5155065;27;20046;-52
2022/07/18 08:07:09;;;;;;;5.22;4.40;;;31.00;1.00;;;;;;5156205;27;20074;-57
2022/07/18 08:09:34;;;;;;;5.00;4.50;;;30.80;1.00;;;;;;5155052;27;20022;-58
2022/07/18 08:12:00;;;;;;;5.57;4.53;;;31.00;1.00;;;;;;5156136;27;20468;-56
2022/07/18 08:14:26;;;;;;;5.25;4.78;;;31.40;1.00;;;;;;5154545;27;20021;-51
2022/07/18 08:16:51;;;;;;;5.10;4.60;;;31.50;1.00;;;;;;5153496;27;20027;-63
2022/07/18 08:19:17;;;;;;;6.15;4.90;;;31.60;1.00;;;;;;5155241;27;20022;-60
2022/07/18 08:21:42;;;;;;;5.15;4.72;;;31.80;1.00;;;;;;5141056;27;20488;-62
2022/07/18 08:24:08;;;;;;;5.03;4.60;;;32.00;1.00;;;;;;5153707;27;20022;-58
2022/07/18 08:26:35;;;;;;;7.95;4.68;;;31.80;1.00;;;;;;5154536;27;20464;-57
2022/07/18 08:29:02;;;;;;;5.28;4.70;;;31.70;1.00;;;;;;5153095;27;20462;-49
2022/07/18 08:31:28;;;;;;;5.00;4.60;;;31.70;1.00;;;;;;5155892;27;20399;-58
2022/07/18 08:33:54;;;;;;;5.03;4.63;;;31.70;1.00;;;;;;5154995;27;20038;-64
2022/07/18 08:36:20;;;;;;;6.72;4.85;;;32.00;1.00;;;;;;5154544;27;20078;-59
2022/07/18 08:38:46;;;;;;;6.85;4.68;;;31.90;1.00;;;;;;5155577;27;20490;-65
2022/07/18 08:41:12;;;;;;;5.50;4.97;;;32.30;1.00;;;;;;5153230;27;20045;-58
2022/07/18 08:43:38;;;;;;;5.30;4.40;;;32.20;1.00;;;;;;5141840;27;20023;-48
2022/07/18 08:46:06;;;;;;;4.82;4.43;;;32.10;1.00;;;;;;5152273;27;20480;-56
2022/07/18 08:48:32;;;;;;;6.40;4.68;;;32.00;1.00;;;;;;5143538;27;20019;-63
2022/07/18 08:51:00;;;;;;;5.03;4.60;;;32.10;1.00;;;;;;5149668;27;20027;-49
2022/07/18 08:53:26;;;;;;;5.22;4.40;;;32.00;1.00;;;;;;5155333;27;20026;-63
2022/07/18 08:55:52;;;;;;;5.47;4.53;;;32.50;1.00;;;;;;5153329;27;20050;-58
2022/07/18 08:58:18;;;;;;;4.32;4.03;;;32.60;1.00;;;;;;5154713;27;20106;-57
2022/07/18 09:00:45;;;;;;;4.60;4.20;;;32.50;1.00;;;;;;5153513;27;20023;-56
2022/07/18 09:03:11;;;;;;;7.22;4.55;;;32.60;1.00;;;;;;5154945;27;20512;-65
2022/07/18 09:05:37;;;;;;;5.50;4.95;;;32.70;1.00;;;;;;5154095;27;20051;-57
2022/07/18 09:08:21;;;;;;;5.80;5.20;;;32.50;1.00;;;;;;5154833;27;20030;-57
2022/07/18 09:10:56;;;;;;;6.72;5.10;;;32.80;1.00;;;;;;5153995;27;20026;-61
2022/07/18 09:13:32;;;;;;;7.70;5.00;;;32.70;1.00;;;;;;5154973;27;20397;-57
2022/07/18 09:16:12;;;;;;;7.60;5.88;;;32.50;1.00;;;;;;5152527;27;20031;-56
2022/07/18 09:18:42;;;;;;;5.55;5.15;;;32.70;1.00;;;;;;5152496;27;20055;-56
2022/07/18 09:21:20;;;;;;;5.50;4.95;;;33.00;1.00;;;;;;5152316;27;20037;-56
2022/07/18 09:23:51;;;;;;;5.85;5.30;;;33.40;1.00;;;;;;5137477;27;20023;-59
2022/07/18 09:26:41;;;;;;;6.00;4.88;;;33.10;1.00;;;;;;5137732;27;20060;-58
2022/07/18 09:29:07;;;;;;;6.82;4.75;;;32.70;1.00;;;;;;5147370;27;20027;-49
2022/07/18 09:31:33;;;;;;;5.40;4.90;;;32.20;1.00;;;;;;5151955;27;20034;-57
2022/07/18 09:34:01;;;;;;;5.78;5.07;;;32.40;1.00;;;;;;5154245;27;20086;-60
2022/07/18 09:36:28;;;;;;;5.00;4.40;;;32.40;1.00;;;;;;5152203;27;20054;-49
2022/07/18 09:38:54;;;;;;;5.85;5.30;;;32.20;1.00;;;;;;5153712;27;20595;-59
2022/07/18 09:41:30;;;;;;;5.15;4.68;;;32.30;1.00;;;;;;5153322;27;20054;-59
2022/07/18 09:43:55;;;;;;;5.25;4.10;;;32.30;1.00;;;;;;5153131;27;20010;-59
2022/07/18 09:46:21;;;;;;;5.35;4.82;;;32.50;1.00;;;;;;5151307;27;20112;-59
2022/07/18 09:48:47;;;;;;;8.07;4.55;;;32.30;1.00;;;;;;5153979;27;20027;-58
2022/07/18 09:51:13;;;;;;;5.57;4.80;;;32.30;1.00;;;;;;5153321;27;20468;-58
2022/07/18 09:53:44;;;;;;;5.47;4.97;;;32.50;1.00;;;;;;5148840;27;20027;-55
2022/07/18 09:56:21;;;;;;;5.07;4.68;;;32.70;1.00;;;;;;5153181;27;20084;-65
2022/07/18 09:58:55;;;;;;;5.05;4.65;;;32.80;1.00;;;;;;5152994;27;20030;-66
2022/07/18 10:01:22;;;;;;;5.00;4.53;;;32.50;1.00;;;;;;5153194;27;20027;-57
2022/07/18 10:03:48;;;;;;;5.35;4.82;;;33.00;1.00;;;;;;5153922;27;20027;-60
2022/07/18 10:06:16;;;;;;;5.20;4.80;;;32.90;1.00;;;;;;5151734;27;20110;-57
2022/07/18 10:08:42;;;;;;;5.45;4.35;;;32.70;1.00;;;;;;5153344;27;20033;-58
2022/07/18 10:11:08;;;;;;;5.30;4.80;;;32.40;1.00;;;;;;5152142;27;20035;-53
2022/07/18 10:13:35;;;;;;;5.80;4.65;;;32.90;1.00;;;;;;5152954;27;20458;-66
2022/07/18 10:16:01;;;;;;;5.70;5.18;;;32.90;1.00;;;;;;5152910;27;20031;-60
2022/07/18 10:18:33;;;;;;;5.05;4.60;;;33.10;1.00;;;;;;5153745;27;20019;-60
2022/07/18 10:21:02;;;;;;;4.45;4.05;;;33.20;1.00;;;;;;5152806;27;20022;-61
2022/07/18 10:23:47;;;;;;;5.07;4.53;;;33.40;1.00;;;;;;5154054;27;20039;-62
2022/07/18 10:26:25;;;;;;;4.65;4.35;;;33.30;1.00;;;;;;5153076;27;20045;-62
2022/07/18 10:29:00;;;;;;;8.57;5.90;;;33.40;1.00;;;;;;5153545;27;20034;-59
2022/07/18 10:31:30;;;;;;;6.82;4.82;;;33.40;1.00;;;;;;5152909;27;20448;-54
2022/07/18 10:34:07;;;;;;;5.85;4.60;;;33.20;1.00;;;;;;5153779;27;20395;-59
2022/07/18 10:37:00;;;;;;;4.93;4.53;;;33.30;1.00;;;;;;5152427;27;20047;-59
2022/07/18 10:39:34;;;;;;;5.10;4.60;;;33.70;1.00;;;;;;5148670;27;20510;-59
2022/07/18 10:42:02;;;;;;;5.10;4.63;;;34.00;1.00;;;;;;5151699;27;20121;-59
2022/07/18 10:44:31;;;;;;;4.93;4.28;;;33.80;1.00;;;;;;5152714;27;20022;-58
2022/07/18 10:47:02;;;;;;;6.07;4.20;;;34.20;1.00;;;;;;5152997;27;20448;-53
2022/07/18 10:49:48;;;;;;;5.78;4.47;;;34.50;1.00;;;;;;5153579;27;20126;-55
2022/07/18 10:52:28;;;;;;;4.85;4.45;;;34.10;1.00;;;;;;5136873;27;20365;-59
2022/07/18 10:55:02;;;;;;;4.90;4.47;;;34.00;1.00;;;;;;5152234;27;20153;-60
2022/07/18 10:57:41;;;;;;;5.03;4.63;;;33.60;1.00;;;;;;5151057;27;20031;-62
2022/07/18 11:00:11;;;;;;;5.97;4.95;;;33.90;1.00;;;;;;5148655;27;20222;-59
2022/07/18 11:02:46;;;;;;;6.13;4.50;;;34.50;1.00;;;;;;5153047;27;20110;-60
2022/07/18 11:05:26;;;;;;;5.40;4.50;;;34.60;1.00;;;;;;5152433;27;20027;-58
2022/07/18 11:08:13;;;;;;;5.68;4.38;;;34.90;1.00;;;;;;5153005;27;20026;-60
2022/07/18 11:10:41;;;;;;;4.95;4.50;;;34.50;1.00;;;;;;5144018;27;20337;-61
2022/07/18 11:13:25;;;;;;;6.93;5.38;;;34.90;1.00;;;;;;5150971;27;20125;-61
2022/07/18 11:16:17;;;;;;;5.60;4.70;;;35.00;1.00;;;;;;5151994;27;20029;-61
2022/07/18 11:18:47;;;;;;;7.13;6.43;;;35.40;1.00;;;;;;5139498;27;20038;-63
2022/07/18 11:21:21;;;;;;;5.95;5.38;;;34.90;1.00;;;;;;5152842;27;20052;-63
2022/07/18 11:23:52;;;;;;;6.43;4.95;;;34.30;1.00;;;;;;5147956;27;20338;-64
2022/07/18 11:26:20;;;;;;;5.25;4.95;;;34.40;1.00;;;;;;5154979;27;20054;-64
2022/07/18 11:28:48;;;;;;;5.43;5.03;;;34.80;1.00;;;;;;5156806;27;20464;-63
2022/07/18 11:31:15;;;;;;;5.57;5.10;;;34.70;1.00;;;;;;5155944;27;20109;-65
2022/07/18 11:33:46;;;;;;;5.05;4.75;;;34.60;1.00;;;;;;5155001;27;20029;-64
2022/07/18 11:36:21;;;;;;;4.80;4.50;;;35.50;1.00;;;;;;5155820;27;20043;-63
2022/07/18 11:38:55;;;;;;;5.68;5.18;;;36.60;1.00;;;;;;5156085;27;20380;-64
2022/07/18 11:41:22;;;;;;;5.47;5.07;;;37.00;1.00;;;;;;5153530;27;20078;-64
2022/07/18 11:43:50;;;;;;;5.60;5.28;;;36.40;1.00;;;;;;5156507;27;20044;-62
2022/07/18 11:46:18;;;;;;;5.60;5.05;;;36.50;1.00;;;;;;5155359;27;20144;-63
2022/07/18 11:48:46;;;;;;;6.05;5.53;;;36.90;1.00;;;;;;5150894;27;20019;-63
2022/07/18 11:51:14;;;;;;;7.05;5.57;;;38.80;1.00;;;;;;5147699;27;20037;-63
2022/07/18 11:53:46;;;;;;;5.50;5.00;;;39.60;1.00;;;;;;5156108;27;20437;-63
2022/07/18 11:56:13;;;;;;;6.28;5.68;;;41.00;1.00;;;;;;5155225;27;20054;-66
2022/07/18 11:58:40;;;;;;;6.45;5.18;;;41.20;1.00;;;;;;5154212;27;20022;-66
2022/07/18 12:01:06;;;;;;;5.50;5.20;;;40.80;1.00;;;;;;5143164;27;20400;-65
2022/07/18 12:03:41;;;;;;;5.97;5.60;;;40.70;1.00;;;;;;5152666;27;20076;-57
2022/07/18 12:06:15;;;;;;;6.22;5.70;;;42.70;1.00;;;;;;5156975;27;20106;-59
2022/07/18 12:08:51;;;;;;;6.30;5.68;;;43.90;1.00;;;;;;5158619;27;20038;-59
2022/07/18 12:11:31;;;;;;;6.10;5.60;;;43.10;1.00;;;;;;5142431;27;20030;-59
2022/07/18 12:14:09;;;;;;;6.43;5.82;;;42.70;1.00;;;;;;5152971;27;20413;-58
2022/07/18 12:16:37;;;;;;;7.50;7.00;;;42.40;1.00;;;;;;5144394;27;20042;-58
2022/07/18 12:19:12;;;;;;;8.38;7.38;;;41.70;1.00;;;;;;5137762;27;20155;-54
2022/07/18 12:21:43;;;;;;;6.88;6.40;;;41.50;1.00;;;;;;5147895;27;20148;-60
2022/07/18 12:24:31;;;;;;;6.40;5.80;;;41.60;1.00;;;;;;5150980;27;20101;-59
2022/07/18 12:27:19;;;;;;;6.75;6.15;;;42.10;1.00;;;;;;5141110;27;20499;-61
2022/07/18 12:30:02;;;;;;;6.03;5.63;;;42.60;1.00;;;;;;5135652;27;20030;-59
2022/07/18 12:32:47;;;;;;;6.38;5.80;;;42.10;1.00;;;;;;5151168;27;20445;-58
2022/07/18 12:35:37;;;;;;;6.47;5.95;;;41.80;1.00;;;;;;5142616;27;20027;-60
2022/07/18 12:38:14;;;;;;;6.03;5.63;;;40.30;1.00;;;;;;5149136;27;20051;-61
2022/07/18 12:40:51;;;;;;;6.00;5.70;;;39.30;1.00;;;;;;5143885;27;20076;-63
2022/07/18 12:43:25;;;;;;;6.95;6.28;;;38.30;1.00;;;;;;5145623;27;20043;-63
2022/07/18 12:45:50;;;;;;;7.22;6.53;;;37.60;1.00;;;;;;5138986;27;20035;-59
2022/07/18 12:48:17;;;;;;;7.43;6.72;;;37.10;1.00;;;;;;5144452;27;20123;-60
2022/07/18 12:50:46;;;;;;;7.57;6.90;;;37.50;1.00;;;;;;5147557;27;20018;-53
2022/07/18 12:53:13;;;;;;;7.22;6.70;;;37.60;1.00;;;;;;5144995;27;20061;-53
2022/07/18 12:55:40;;;;;;;7.20;6.70;;;37.40;1.00;;;;;;5147943;27;20114;-52
2022/07/18 12:58:06;;;;;;;7.07;6.50;;;36.60;1.00;;;;;;5153589;27;20045;-50
2022/07/18 13:00:32;;;;;;;7.38;6.40;;;36.50;1.00;;;;;;5153410;27;20071;-54
2022/07/18 13:02:59;;;;;;;7.05;6.40;;;36.40;1.00;;;;;;5153508;27;20087;-60
2022/07/18 13:05:27;;;;;;;6.88;6.38;;;36.20;1.00;;;;;;5153735;27;20029;-63